Time;durP1;ratioP1;P1;durP2;ratioP2;P2;SDS_P1;SDS_P2;PMS_P1;PMS_P2;Temp;Humidity;BMP_temperature;BMP_pressure;BME280_temperature;BME280_humidity;BME280_pressure;Samples;Min_cycle;Max_cycle;Signal;HPM_P1;HPM_P2
2024/02/03 00:02:37;;;;;;;13.40;4.95;;;;;;;-4.35;100.00;99457.00;5053163;28;20113;-71
2024/02/03 00:05:08;;;;;;;12.18;5.95;;;;;;;-4.30;100.00;99460.16;5052978;28;20044;-67
2024/02/03 00:07:37;;;;;;;17.17;6.82;;;;;;;-4.93;100.00;99346.50;5051868;28;20045;-69
2024/02/03 00:10:40;;;;;;;15.90;7.67;;;;;;;-4.33;100.00;99433.53;5051402;28;20063;-68
2024/02/03 00:13:05;;;;;;;13.18;6.13;;;;;;;-4.36;100.00;99421.53;5052385;28;20069;-67
2024/02/03 00:15:31;;;;;;;14.93;5.73;;;;;;;-4.48;100.00;99388.59;5052744;28;20071;-67
2024/02/03 00:17:56;;;;;;;14.17;6.07;;;;;;;-4.44;100.00;99393.47;5053043;28;20040;-67
2024/02/03 00:20:23;;;;;;;15.23;7.23;;;;;;;-4.33;100.00;99405.78;5052534;28;20144;-67
2024/02/03 00:22:51;;;;;;;19.92;6.45;;;;;;;-4.40;100.00;99381.09;5052466;28;20060;-69
2024/02/03 00:25:20;;;;;;;15.27;6.00;;;;;;;-4.37;100.00;99378.31;5052883;28;20051;-68
2024/02/03 00:27:47;;;;;;;10.07;4.85;;;;;;;-4.26;100.00;99399.22;5035193;28;20098;-67
2024/02/03 00:30:31;;;;;;;8.00;6.13;;;;;;;-4.20;100.00;99383.22;5051035;28;20088;-68
2024/02/03 00:32:57;;;;;;;11.32;6.13;;;;;;;-4.17;100.00;99374.38;5052330;28;20086;-66
2024/02/03 00:35:22;;;;;;;16.70;6.53;;;;;;;-4.14;100.00;99367.19;5050976;28;20595;-67
2024/02/03 00:37:47;;;;;;;11.10;7.40;;;;;;;-4.10;100.00;99353.06;5050932;28;20152;-67
2024/02/03 00:40:32;;;;;;;14.53;6.93;;;;;;;-4.22;100.00;99321.88;5050740;28;20034;-70
2024/02/03 00:42:57;;;;;;;11.07;5.90;;;;;;;-4.11;100.00;99319.34;5052236;28;20055;-67
2024/02/03 00:45:23;;;;;;;16.23;5.93;;;;;;;-4.11;100.00;99316.75;5052357;28;20033;-66
2024/02/03 00:48:07;;;;;;;10.10;5.63;;;;;;;-4.03;100.00;99327.47;5052343;28;20401;-67
2024/02/03 00:50:32;;;;;;;9.98;5.40;;;;;;;-4.00;100.00;99318.63;5052250;28;20040;-67
2024/02/03 00:52:58;;;;;;;13.23;4.90;;;;;;;-3.97;100.00;99318.41;5052689;28;20041;-69
2024/02/03 01:00:51;;;;;;;8.93;4.43;;;;;;;-4.09;100.00;99294.91;5037193;28;20389;-68
2024/02/03 01:03:35;;;;;;;13.83;6.50;;;;;;;-4.15;100.00;99282.34;5034333;28;20033;-67
2024/02/03 01:06:19;;;;;;;9.98;4.97;;;;;;;-4.28;100.00;99272.91;5053111;28;20025;-67
2024/02/03 01:09:03;;;;;;;8.30;5.28;;;;;;;-4.46;100.00;99243.81;5038876;28;20056;-68
2024/02/03 01:11:29;;;;;;;10.50;5.78;;;;;;;-4.38;100.00;99249.28;5051044;28;20509;-68
2024/02/03 01:13:54;;;;;;;12.50;5.27;;;;;;;-4.38;100.00;99246.69;5052218;28;20043;-68
2024/02/03 01:16:21;;;;;;;12.27;5.10;;;;;;;-4.31;100.00;99236.72;5051997;28;20159;-67
2024/02/03 01:18:48;;;;;;;15.07;7.38;;;;;;;-4.32;100.00;99235.06;5049245;28;20052;-66
2024/02/03 01:21:16;;;;;;;10.77;6.13;;;;;;;-4.32;100.00;99246.28;5040620;28;20037;-69
2024/02/03 01:23:41;;;;;;;10.27;5.13;;;;;;;-4.33;100.00;99243.81;5032198;28;20043;-68
2024/02/03 01:26:07;;;;;;;11.60;6.20;;;;;;;-4.30;100.00;99249.63;5032579;28;20112;-68
2024/02/03 01:28:32;;;;;;;12.60;5.53;;;;;;;-4.42;100.00;99224.47;5032345;28;20087;-68
2024/02/03 01:30:58;;;;;;;14.90;5.67;;;;;;;-4.50;100.00;99218.97;5031888;28;20030;-67
2024/02/03 01:36:08;;;;;;;10.05;5.68;;;;;;;-4.46;100.00;99234.22;5032931;28;20041;-75
2024/02/03 01:38:34;;;;;;;8.25;4.90;;;;;;;-4.50;100.00;99219.78;5032703;28;20042;-73
2024/02/03 01:41:18;;;;;;;8.97;5.43;;;;;;;-4.83;100.00;99173.59;5030306;28;20501;-73
2024/02/03 01:43:44;;;;;;;8.30;5.22;;;;;;;-4.55;100.00;99208.06;5030363;28;20040;-72
2024/02/03 01:46:47;;;;;;;10.93;4.57;;;;;;;-4.56;100.00;99207.22;5029976;28;20069;-72
2024/02/03 01:54:43;;;;;;;10.07;4.78;;;;;;;-4.83;100.00;99147.63;5031171;28;20076;-74
2024/02/03 01:57:09;;;;;;;13.43;3.90;;;;;;;-4.48;100.00;99199.72;5030086;28;20067;-72
2024/02/03 02:02:19;;;;;;;10.73;4.60;;;;;;;-4.50;100.00;99182.59;5031226;28;20049;-75
2024/02/03 02:04:45;;;;;;;7.03;5.50;;;;;;;-4.37;100.00;99201.59;5013471;28;20124;-72
2024/02/03 02:09:54;;;;;;;6.50;4.43;;;;;;;-4.46;100.00;99153.69;5029982;28;20035;-72
2024/02/03 02:12:20;;;;;;;7.63;4.73;;;;;;;-4.32;100.00;99167.50;5031290;28;20041;-73
2024/02/03 02:15:04;;;;;;;9.63;5.10;;;;;;;-4.29;100.00;99173.31;5031451;28;20120;-72
2024/02/03 02:17:57;;;;;;;10.13;5.18;;;;;;;-4.26;100.00;99177.47;5030942;28;20037;-73
2024/02/03 02:20:29;;;;;;;10.02;6.10;;;;;;;-4.28;100.00;99163.75;5030093;28;20065;-73
2024/02/03 02:25:38;;;;;;;5.78;4.10;;;;;;;-4.42;100.00;99125.72;5031487;28;20045;-72
2024/02/03 02:28:04;;;;;;;11.97;5.37;;;;;;;-4.40;100.00;99129.03;5031040;28;20040;-73
2024/02/03 02:30:29;;;;;;;7.97;4.23;;;;;;;-4.25;100.00;99140.97;5033898;28;20370;-72
2024/02/03 02:32:55;;;;;;;6.13;3.93;;;;;;;-4.22;100.00;99130.34;5033495;28;20375;-73
2024/02/03 02:35:20;;;;;;;10.27;4.87;;;;;;;-4.16;100.00;99132.50;5035888;28;20071;-74
2024/02/03 02:37:46;;;;;;;7.53;4.70;;;;;;;-4.24;100.00;99121.81;5034735;28;20045;-72
2024/02/03 02:43:14;;;;;;;10.45;4.57;;;;;;;-4.53;100.00;99104.88;5035672;28;20033;-72
2024/02/03 02:45:40;;;;;;;7.57;4.03;;;;;;;-4.56;100.00;99087.72;5036227;28;20064;-71
2024/02/03 02:48:05;;;;;;;10.57;5.47;;;;;;;-4.48;100.00;99089.78;5037382;28;20120;-71
2024/02/03 02:53:52;;;;;;;9.32;4.80;;;;;;;-4.63;100.00;99081.28;5037723;28;20476;-72
2024/02/03 02:56:36;;;;;;;7.63;4.38;;;;;;;-4.67;100.00;99088.47;5040383;28;20080;-72
2024/02/03 02:59:02;;;;;;;7.13;4.55;;;;;;;-5.86;100.00;98896.09;5040821;28;20488;-74
2024/02/03 03:02:05;;;;;;;12.03;5.60;;;;;;;-4.61;100.00;99083.81;5033891;28;20029;-73
2024/02/03 03:04:49;;;;;;;8.80;4.70;;;;;;;-4.77;100.00;99048.50;5033098;28;20045;-72
2024/02/03 03:07:33;;;;;;;8.35;4.47;;;;;;;-4.75;100.00;99058.78;5034328;28;20412;-72
2024/02/03 03:10:35;;;;;;;10.45;6.10;;;;;;;-4.65;100.00;99058.94;5035223;28;20049;-72
2024/02/03 03:13:01;;;;;;;14.40;5.18;;;;;;;-4.73;100.00;99056.91;5035591;28;20037;-72
2024/02/03 03:15:26;;;;;;;8.87;5.43;;;;;;;-4.89;100.00;99026.00;5034240;28;20045;-72
2024/02/03 03:18:10;;;;;;;10.50;5.43;;;;;;;-4.83;100.00;99043.75;5033769;28;20044;-71
2024/02/03 03:20:40;;;;;;;9.68;4.65;;;;;;;-4.91;100.00;99020.09;5034272;28;20108;-73
2024/02/03 03:23:06;;;;;;;12.82;5.38;;;;;;;-4.81;100.00;99026.28;5032399;28;20049;-72
2024/02/03 03:25:32;;;;;;;7.07;4.47;;;;;;;-4.80;100.00;99009.75;5033597;28;20056;-72
2024/02/03 03:27:57;;;;;;;10.70;4.67;;;;;;;-4.70;100.00;99013.34;5033560;28;20061;-71
2024/02/03 03:30:23;;;;;;;8.93;3.90;;;;;;;-4.46;100.00;99035.94;5033650;28;20069;-73
2024/02/03 03:38:42;;;;;;;9.60;4.10;;;;;;;-4.46;100.00;98969.22;5033151;28;20084;-72
2024/02/03 03:43:52;;;;;;;9.80;4.25;;;;;;;-4.13;100.00;99007.50;5033590;28;20493;-72
2024/02/03 03:49:20;;;;;;;10.52;4.10;;;;;;;-4.12;100.00;98985.75;5032990;28;20029;-73
2024/02/03 03:52:04;;;;;;;10.65;3.90;;;;;;;-4.28;100.00;98961.00;5033113;28;20045;-72
2024/02/03 03:57:32;;;;;;;6.55;3.78;;;;;;;-4.21;100.00;98947.44;5032734;28;20048;-72
2024/02/03 04:02:42;;;;;;;8.30;4.15;;;;;;;-4.09;100.00;98949.13;5031799;28;20068;-72
2024/02/03 04:08:30;;;;;;;10.57;5.47;;;;;;;-3.97;100.00;98955.19;5032359;28;20033;-73
2024/02/03 04:10:55;;;;;;;8.93;4.57;;;;;;;-4.38;100.00;98898.47;5032789;28;20129;-73
2024/02/03 04:13:21;;;;;;;10.00;4.53;;;;;;;-4.17;100.00;98938.47;5032893;28;20219;-73
2024/02/03 04:15:46;;;;;;;9.70;5.07;;;;;;;-4.07;100.00;98949.84;5032716;28;20042;-72
2024/02/03 04:18:15;;;;;;;8.13;4.07;;;;;;;-4.04;100.00;98948.81;5032430;28;20041;-71
2024/02/03 04:20:40;;;;;;;8.77;5.03;;;;;;;-4.17;100.00;98925.47;5030956;28;20067;-72
2024/02/03 04:23:06;;;;;;;8.37;3.30;;;;;;;-3.97;100.00;98946.56;5050307;28;20512;-72
2024/02/03 04:28:53;;;;;;;7.07;3.88;;;;;;;-3.90;100.00;98932.16;5051963;28;20416;-73
2024/02/03 04:31:19;;;;;;;6.73;3.70;;;;;;;-3.87;100.00;98943.16;5050881;28;20062;-73
2024/02/03 04:36:35;;;;;;;5.45;3.53;;;;;;;-3.69;100.00;98934.91;5051682;28;20033;-72
2024/02/03 04:39:00;;;;;;;12.57;4.57;;;;;;;-3.67;100.00;98928.63;5052676;28;20098;-72
2024/02/03 04:41:26;;;;;;;7.43;3.93;;;;;;;-3.77;100.00;98919.84;5050725;28;20063;-72
2024/02/03 04:43:51;;;;;;;5.73;4.17;;;;;;;-3.71;100.00;98909.00;5052401;28;20147;-72
2024/02/03 04:46:36;;;;;;;9.20;4.30;;;;;;;-3.52;100.00;98917.03;5051968;28;20037;-73
2024/02/03 04:49:03;;;;;;;14.35;4.03;;;;;;;-3.86;100.00;98845.97;5051777;28;20068;-71
2024/02/03 04:51:47;;;;;;;9.73;4.85;;;;;;;-3.32;100.00;98904.25;5051970;28;20041;-72
2024/02/03 04:54:13;;;;;;;6.65;4.32;;;;;;;-3.40;100.00;98870.19;5051790;28;20040;-71
2024/02/03 04:59:22;;;;;;;6.82;4.80;;;;;;;-3.44;100.00;98860.03;5051975;28;20037;-73
2024/02/03 05:04:31;;;;;;;13.27;4.70;;;;;;;-3.28;100.00;98853.59;5052120;28;20037;-73
2024/02/03 05:06:57;;;;;;;10.67;4.70;;;;;;;-3.15;100.00;98872.53;5051896;28;20128;-72
2024/02/03 05:09:22;;;;;;;9.53;5.87;;;;;;;-3.20;100.00;98859.00;5051906;28;20045;-72
2024/02/03 05:11:48;;;;;;;9.90;4.37;;;;;;;-3.32;100.00;98832.19;5052297;28;20033;-73
2024/02/03 05:14:32;;;;;;;15.70;5.60;;;;;;;-3.07;100.00;98854.50;5051528;28;20055;-72
2024/02/03 05:16:59;;;;;;;8.65;3.97;;;;;;;-3.14;100.00;98837.72;5053165;28;20111;-72
2024/02/03 05:19:27;;;;;;;11.57;4.70;;;;;;;-2.99;100.00;98849.50;5053523;28;20103;-72
2024/02/03 05:21:53;;;;;;;6.97;3.60;;;;;;;-2.92;100.00;98850.63;5052741;28;20551;-72
2024/02/03 05:24:19;;;;;;;9.03;4.07;;;;;;;-3.19;100.00;98795.56;5051812;28;20044;-72
2024/02/03 05:27:02;;;;;;;6.27;3.70;;;;;;;-3.04;100.00;98814.34;5051704;28;20476;-73
2024/02/03 05:32:12;;;;;;;12.05;6.07;;;;;;;-2.94;100.00;98826.50;5051602;28;20033;-73
2024/02/03 05:34:38;;;;;;;10.68;5.90;;;;;;;-3.29;100.00;98759.06;5053350;28;20032;-73
2024/02/03 05:37:22;;;;;;;8.77;5.73;;;;;;;-2.87;100.00;98816.44;5051986;28;20098;-73
2024/02/03 05:40:06;;;;;;;6.15;3.83;;;;;;;-2.88;100.00;98797.38;5050624;28;20033;-75
2024/02/03 05:42:32;;;;;;;9.45;3.80;;;;;;;-2.93;100.00;98786.47;5051664;28;20062;-75
2024/02/03 05:44:58;;;;;;;6.23;3.60;;;;;;;-2.98;100.00;98767.81;5033545;28;20123;-73
2024/02/03 05:47:24;;;;;;;9.75;3.97;;;;;;;-2.82;100.00;98773.41;5049929;28;20033;-73
2024/02/03 05:50:08;;;;;;;7.60;4.23;;;;;;;-2.79;100.00;98774.13;5051846;28;20045;-73
2024/02/03 05:52:33;;;;;;;8.60;3.92;;;;;;;-3.01;100.00;98726.38;5062423;28;20037;-73
2024/02/03 05:54:59;;;;;;;8.83;4.60;;;;;;;-2.69;100.00;98777.59;5057296;28;20044;-72
2024/02/03 05:57:25;;;;;;;6.47;4.93;;;;;;;-2.79;100.00;98748.06;5060660;28;20405;-74
2024/02/03 06:00:09;;;;;;;5.97;4.40;;;;;;;-2.55;100.00;98767.69;5058311;28;20037;-73
2024/02/03 06:02:35;;;;;;;8.15;4.53;;;;;;;-2.53;100.00;98772.78;5052297;28;20041;-73
2024/02/03 06:05:00;;;;;;;8.13;4.07;;;;;;;-2.51;100.00;98760.44;5052581;28;20091;-72
2024/02/03 06:15:43;;;;;;;7.85;4.53;;;;;;;-2.67;100.00;98707.94;5055280;28;20072;-71
2024/02/03 06:18:27;;;;;;;10.50;4.97;;;;;;;-2.46;100.00;98740.03;5053526;28;20507;-74
2024/02/03 06:20:53;;;;;;;9.63;4.53;;;;;;;-2.51;100.00;98730.00;5054940;28;20513;-74
2024/02/03 06:23:18;;;;;;;13.13;8.63;;;;;;;-2.52;100.00;98735.34;5054980;28;20052;-71
2024/02/03 06:26:03;;;;;;;8.10;4.07;;;;;;;-2.55;100.00;98739.03;5049979;28;20049;-77
2024/02/03 06:28:28;;;;;;;8.18;3.97;;;;;;;-2.60;100.00;98714.31;5047407;28;20126;-73
2024/02/03 06:33:40;;;;;;;12.15;5.05;;;;;;;-2.69;100.00;98678.59;5053746;28;20079;-74
2024/02/03 06:36:06;;;;;;;7.15;3.78;;;;;;;-2.38;100.00;98719.34;5053256;28;20056;-73
2024/02/03 06:38:31;;;;;;;4.83;3.83;;;;;;;-2.34;100.00;98715.50;5052475;28;20392;-71
2024/02/03 06:40:57;;;;;;;6.43;4.03;;;;;;;-2.78;100.00;98642.91;5053764;28;20036;-71
2024/02/03 06:43:22;;;;;;;6.77;4.60;;;;;;;-2.67;100.00;98645.41;5054279;28;20128;-71
2024/02/03 06:45:48;;;;;;;18.93;7.00;;;;;;;-2.52;100.00;98654.53;5054830;28;20040;-72
2024/02/03 06:48:13;;;;;;;9.87;4.73;;;;;;;-2.24;100.00;98695.53;5054066;28;20068;-73
2024/02/03 06:50:39;;;;;;;20.03;8.40;;;;;;;-2.19;100.00;98695.94;5054777;28;20084;-72
2024/02/03 06:53:05;;;;;;;8.77;4.10;;;;;;;-2.15;100.00;98690.47;5037064;28;20041;-72
2024/02/03 06:55:30;;;;;;;15.37;6.87;;;;;;;-2.29;100.00;98668.22;5052822;28;20492;-72
2024/02/03 06:57:56;;;;;;;9.73;5.27;;;;;;;-2.42;100.00;98647.56;5053138;28;20063;-72
2024/02/03 07:00:22;;;;;;;9.73;4.73;;;;;;;-2.37;100.00;98657.59;5053430;28;20511;-71
2024/02/03 07:02:48;;;;;;;8.05;4.90;;;;;;;-2.37;100.00;98663.63;5054324;28;20097;-70
2024/02/03 07:05:13;;;;;;;11.60;4.70;;;;;;;-2.21;100.00;98671.78;5054654;28;20561;-71
2024/02/03 07:07:57;;;;;;;9.90;5.23;;;;;;;-2.11;100.00;98674.41;5053956;28;20575;-70
2024/02/03 07:10:23;;;;;;;13.57;6.07;;;;;;;-2.38;100.00;98603.81;5054054;28;20043;-71
2024/02/03 07:12:49;;;;;;;13.73;5.97;;;;;;;-2.10;100.00;98642.16;5052935;28;20112;-71
2024/02/03 07:15:15;;;;;;;13.30;4.83;;;;;;;-2.10;100.00;98636.13;5051903;28;20029;-69
2024/02/03 07:17:40;;;;;;;11.83;5.57;;;;;;;-2.06;100.00;98634.88;5054141;28;20045;-71
2024/02/03 07:20:06;;;;;;;9.97;4.83;;;;;;;-2.05;100.00;98633.94;5052081;28;20097;-70
2024/02/03 07:22:32;;;;;;;8.93;4.67;;;;;;;-2.07;100.00;98628.03;5053713;28;20056;-70
2024/02/03 07:24:57;;;;;;;14.53;6.70;;;;;;;-2.17;100.00;98607.16;5053429;28;20055;-69
2024/02/03 07:27:24;;;;;;;15.57;8.13;;;;;;;-2.08;100.00;98615.94;5053585;28;20033;-70
2024/02/03 07:29:51;;;;;;;14.45;5.57;;;;;;;-2.02;100.00;98615.44;5054088;28;20120;-70
2024/02/03 07:32:16;;;;;;;14.57;6.80;;;;;;;-1.88;100.00;98621.06;5053952;28;20170;-70
2024/02/03 07:35:01;;;;;;;15.13;6.00;;;;;;;-1.92;100.00;98605.81;5054016;28;20362;-70
2024/02/03 07:37:26;;;;;;;13.45;5.93;;;;;;;-1.96;100.00;98587.00;5054052;28;20037;-71
2024/02/03 07:40:11;;;;;;;16.43;5.93;;;;;;;-1.66;100.00;98625.19;5036563;28;20036;-69
2024/02/03 07:42:40;;;;;;;18.97;6.93;;;;;;;-1.68;100.00;98610.63;5052183;28;20056;-69
2024/02/03 07:45:24;;;;;;;13.55;6.43;;;;;;;-1.69;100.00;98593.34;5035880;28;20337;-73
2024/02/03 07:48:08;;;;;;;10.30;6.03;;;;;;;-1.71;100.00;98577.00;5054101;28;20041;-72
2024/02/03 07:50:34;;;;;;;12.43;6.07;;;;;;;-1.41;100.00;98613.38;5053445;28;20270;-71
2024/02/03 07:52:59;;;;;;;13.50;6.50;;;;;;;-1.32;100.00;98609.91;5053257;28;20263;-70
2024/02/03 07:55:24;;;;;;;21.17;8.97;;;;;;;-1.32;100.00;98585.59;5053975;28;20037;-70
2024/02/03 07:57:50;;;;;;;11.40;5.33;;;;;;;-1.19;100.00;98591.31;5054063;28;20482;-71
2024/02/03 08:00:16;;;;;;;9.47;5.17;;;;;;;-1.10;100.00;98585.28;5059217;28;20488;-70
2024/02/03 08:03:00;;;;;;;15.00;6.50;;;;;;;-0.94;100.00;98593.31;5056361;28;20484;-75
2024/02/03 08:05:26;;;;;;;11.97;6.70;;;;;;;-0.93;100.00;98589.75;5053171;28;20400;-72
2024/02/03 08:08:10;;;;;;;14.13;6.07;;;;;;;-0.93;100.00;98602.81;5053042;28;20271;-77
2024/02/03 08:10:54;;;;;;;9.07;5.33;;;;;;;-0.93;100.00;98579.28;5055047;28;20040;-69
2024/02/03 08:13:20;;;;;;;8.33;5.10;;;;;;;-1.21;100.00;98546.25;5053064;28;20267;-73
2024/02/03 08:18:30;;;;;;;12.37;5.30;;;;;;;-1.12;100.00;98549.81;5052645;28;20079;-68
2024/02/03 08:23:40;;;;;;;10.97;5.50;;;;;;;-1.01;100.00;98575.75;5052089;28;20283;-70
2024/02/03 08:26:05;;;;;;;11.83;6.23;;;;;;;-1.08;100.00;98559.81;5051894;28;20276;-69
2024/02/03 08:28:50;;;;;;;10.00;6.63;;;;;;;-0.84;100.00;98567.16;5052078;28;20094;-69
2024/02/03 08:31:53;;;;;;;9.37;5.10;;;;;;;-0.69;100.00;98544.81;5047532;28;20394;-70
2024/02/03 08:34:18;;;;;;;19.10;6.73;;;;;;;-0.68;100.00;98533.38;5042189;28;20633;-70
2024/02/03 08:36:44;;;;;;;15.43;7.33;;;;;;;-0.66;100.00;98520.97;5046236;28;20283;-71
2024/02/03 08:41:53;;;;;;;15.03;6.03;;;;;;;-0.67;100.00;98497.59;5044402;28;20042;-73
2024/02/03 08:44:18;;;;;;;9.03;4.90;;;;;;;-0.45;100.00;98505.03;5040747;28;20338;-72
2024/02/03 08:46:44;;;;;;;8.07;5.00;;;;;;;-0.18;100.00;98532.13;5041519;28;20059;-72
2024/02/03 08:49:10;;;;;;;8.77;5.23;;;;;;;-0.42;100.00;98514.38;5044409;28;20443;-71
2024/02/03 08:51:35;;;;;;;9.83;4.87;;;;;;;-0.48;100.00;98499.28;5050604;28;20028;-71
2024/02/03 08:54:20;;;;;;;11.83;6.40;;;;;;;-0.29;100.00;98535.75;5037042;28;20059;-74
2024/02/03 08:56:45;;;;;;;22.63;8.50;;;;;;;-0.38;100.00;98521.78;5052128;28;20045;-67
2024/02/03 08:59:11;;;;;;;18.60;9.07;;;;;;;-0.42;100.00;98520.44;5070516;28;20279;-68
2024/02/03 09:01:55;;;;;;;13.27;5.47;;;;;;;-0.36;100.00;98529.47;5061757;28;20044;-71
2024/02/03 09:04:21;;;;;;;9.10;4.60;;;;;;;-0.45;100.00;98528.56;5064921;28;20032;-68
2024/02/03 09:06:47;;;;;;;19.70;8.13;;;;;;;-0.54;100.00;98503.31;5048934;28;20309;-73
2024/02/03 09:09:13;;;;;;;8.20;4.80;;;;;;;-0.65;100.00;98485.22;5057945;28;20048;-69
2024/02/03 09:11:57;;;;;;;15.47;6.87;;;;;;;-0.50;100.00;98507.28;5047703;28;20294;-70
2024/02/03 09:14:23;;;;;;;8.93;4.40;;;;;;;-0.46;100.00;98498.16;5048650;28;20037;-72
2024/02/03 09:16:48;;;;;;;12.80;5.60;;;;;;;-0.62;100.00;98461.38;5039772;28;20291;-70
2024/02/03 09:19:34;;;;;;;13.53;8.53;;;;;;;-0.73;100.00;98459.00;5038090;28;20108;-70
2024/02/03 09:22:18;;;;;;;16.10;7.20;;;;;;;-0.64;100.00;98463.31;5042660;28;20041;-69
2024/02/03 09:24:43;;;;;;;13.33;6.53;;;;;;;-0.59;100.00;98471.53;5040261;28;20280;-72
2024/02/03 09:27:09;;;;;;;9.40;6.23;;;;;;;-0.58;100.00;98472.38;5042230;28;20658;-69
2024/02/03 09:29:39;;;;;;;10.20;5.13;;;;;;;-0.44;100.00;98495.41;5037201;28;20042;-69
2024/02/03 09:32:04;;;;;;;9.27;4.70;;;;;;;-0.63;100.00;98467.59;5042578;28;20120;-71
2024/02/03 09:34:30;;;;;;;6.73;4.17;;;;;;;-0.71;100.00;98464.88;5031604;28;20781;-69
2024/02/03 09:42:45;;;;;;;11.20;4.73;;;;;;;-1.03;100.00;98400.88;5041251;28;20354;-69
2024/02/03 09:45:30;;;;;;;16.10;7.60;;;;;;;-0.47;100.00;98470.38;5047631;28;20287;-69
2024/02/03 09:47:55;;;;;;;8.60;4.37;;;;;;;-0.66;100.00;98428.66;5038148;28;20296;-69
2024/02/03 09:50:21;;;;;;;8.30;4.57;;;;;;;-0.46;100.00;98463.34;5046548;28;20310;-69
2024/02/03 09:53:05;;;;;;;8.33;4.10;;;;;;;-0.42;100.00;98456.84;5048680;28;20500;-71
2024/02/03 10:01:18;;;;;;;8.60;3.97;;;;;;;-0.40;100.00;98455.72;5051029;28;20283;-69
2024/02/03 10:06:47;;;;;;;8.40;3.77;;;;;;;-0.13;100.00;98452.19;5062854;28;20045;-71
2024/02/03 10:09:25;;;;;;;24.30;8.17;;;;;;;-0.17;100.00;98423.88;5062325;28;20299;-70
2024/02/03 10:11:51;;;;;;;25.20;8.82;;;;;;;-0.13;100.00;98426.03;5061975;28;20296;-72
2024/02/03 10:14:19;;;;;;;6.67;4.53;;;;;;;0.03;100.00;98446.28;5062027;28;20081;-70
2024/02/03 10:19:49;;;;;;;13.30;4.00;;;;;;;0.18;100.00;98444.75;5066350;28;20114;-70
2024/02/03 10:22:20;;;;;;;7.60;5.00;;;;;;;0.03;100.00;98420.13;5066006;28;20853;-69
2024/02/03 10:24:45;;;;;;;7.33;3.90;;;;;;;0.02;100.00;98431.56;5064555;28;20282;-68
2024/02/03 10:27:11;;;;;;;16.43;6.43;;;;;;;-0.01;100.00;98424.81;5070896;28;20291;-71
2024/02/03 10:29:36;;;;;;;10.43;4.30;;;;;;;-0.04;100.00;98405.97;5063855;28;20041;-70
2024/02/03 10:37:30;;;;;;;6.33;4.00;;;;;;;0.13;100.00;98405.13;5064150;28;20762;-71
2024/02/03 10:39:56;;;;;;;13.20;4.53;;;;;;;-0.10;100.00;98362.94;5074631;28;20282;-70
2024/02/03 10:42:59;;;;;;;8.27;4.67;;;;;;;0.13;100.00;98389.44;5065610;28;20028;-71
2024/02/03 10:45:29;;;;;;;11.63;5.13;;;;;;;0.19;100.00;98373.09;5060308;28;20049;-71
2024/02/03 10:48:03;;;;;;;10.37;5.43;;;;;;;0.30;100.00;98378.09;5064596;28;20287;-69
2024/02/03 10:50:36;;;;;;;12.07;6.63;;;;;;;0.38;100.00;98366.00;5062161;28;20355;-68
2024/02/03 10:53:07;;;;;;;9.23;4.93;;;;;;;0.38;100.00;98366.00;5071139;28;20295;-69
2024/02/03 10:55:36;;;;;;;9.60;5.07;;;;;;;0.34;100.00;98365.50;5060925;28;20290;-72
2024/02/03 10:58:04;;;;;;;7.20;4.30;;;;;;;0.32;100.00;98369.25;5059355;28;20342;-69
2024/02/03 11:00:29;;;;;;;9.57;5.40;;;;;;;0.36;100.00;98357.50;5070857;28;20284;-69
2024/02/03 11:03:17;;;;;;;17.73;5.70;;;;;;;0.33;100.00;98347.34;5060214;28;20267;-68
2024/02/03 11:08:34;;;;;;;10.63;4.53;;;;;;;0.42;100.00;98378.63;5059176;28;20292;-71
2024/02/03 11:13:44;;;;;;;6.30;4.47;;;;;;;0.24;100.00;98349.06;5064321;28;20298;-69
2024/02/03 11:16:09;;;;;;;9.83;5.00;;;;;;;0.33;100.00;98368.28;5059266;28;20674;-72
2024/02/03 11:21:45;;;;;;;11.50;5.53;;;;;;;0.22;100.00;98346.59;5051525;28;20065;-67
2024/02/03 11:24:35;;;;;;;9.70;5.93;;;;;;;0.38;100.00;98360.78;5047527;28;20315;-72
2024/02/03 11:27:03;;;;;;;12.83;6.73;;;;;;;0.32;100.00;98341.28;5060046;28;20318;-69
2024/02/03 11:29:31;;;;;;;9.18;5.43;;;;;;;0.13;100.00;98303.06;5065125;28;20354;-72
2024/02/03 11:32:03;;;;;;;12.07;5.23;;;;;;;0.39;100.00;98334.44;5050618;28;20428;-71
2024/02/03 11:34:30;;;;;;;9.80;5.07;;;;;;;0.40;100.00;98337.88;5052513;28;20336;-71
2024/02/03 11:36:56;;;;;;;14.77;5.33;;;;;;;0.37;100.00;98332.94;5053942;28;20264;-71
2024/02/03 11:42:54;;;;;;;7.07;4.40;;;;;;;0.60;100.00;98340.09;5053739;28;20453;-69
2024/02/03 11:45:23;;;;;;;6.27;4.40;;;;;;;0.56;100.00;98348.38;5054210;28;20357;-69
2024/02/03 11:47:49;;;;;;;7.37;3.73;;;;;;;0.50;100.00;98344.63;5052991;28;20264;-72
2024/02/03 11:50:34;;;;;;;6.33;4.40;;;;;;;0.58;100.00;98342.03;5054426;28;20263;-72
2024/02/03 11:52:59;;;;;;;9.43;4.30;;;;;;;0.48;100.00;98330.03;5055301;28;20036;-69
2024/02/03 11:55:25;;;;;;;9.80;4.50;;;;;;;0.63;100.00;98341.56;5056483;28;20267;-71
2024/02/03 11:57:50;;;;;;;17.30;10.03;;;;;;;0.49;100.00;98315.97;5054025;28;20063;-73
2024/02/03 12:00:36;;;;;;;9.37;4.80;;;;;;;0.67;100.00;98342.06;5052348;28;20485;-72
2024/02/03 12:03:20;;;;;;;14.50;5.90;;;;;;;0.71;100.00;98341.59;5051424;28;20052;-71
2024/02/03 12:06:05;;;;;;;9.43;4.43;;;;;;;0.70;100.00;98341.75;5052719;28;20299;-67
2024/02/03 12:11:15;;;;;;;7.70;4.83;;;;;;;0.73;100.00;98321.28;5051804;28;20290;-69
2024/02/03 12:14:00;;;;;;;6.90;4.23;;;;;;;0.86;100.00;98333.91;5062126;28;20271;-73
2024/02/03 12:16:27;;;;;;;10.50;4.27;;;;;;;0.68;100.00;98320.94;5062570;28;20071;-73
2024/02/03 12:19:12;;;;;;;6.43;4.53;;;;;;;0.69;100.00;98319.97;5052448;28;20303;-74
2024/02/03 12:21:38;;;;;;;5.87;4.73;;;;;;;0.43;100.00;98285.19;5040546;28;20299;-74
2024/02/03 12:24:23;;;;;;;11.40;5.03;;;;;;;0.60;100.00;98302.59;5052020;28;20276;-72
2024/02/03 12:26:49;;;;;;;5.70;3.83;;;;;;;0.52;100.00;98297.31;5049899;28;20294;-71
2024/02/03 12:29:16;;;;;;;9.60;5.47;;;;;;;0.56;100.00;98294.22;5051193;28;20719;-72
2024/02/03 12:31:42;;;;;;;9.67;4.20;;;;;;;0.64;100.00;98303.09;5051108;28;20124;-71
2024/02/03 12:34:08;;;;;;;10.30;3.93;;;;;;;0.66;100.00;98285.41;5050068;28;20397;-70
2024/02/03 12:39:17;;;;;;;6.17;4.07;;;;;;;0.45;100.00;98252.63;5050434;28;20045;-69
2024/02/03 12:41:43;;;;;;;8.63;4.23;;;;;;;0.71;100.00;98294.44;5050204;28;20310;-70
2024/02/03 12:44:08;;;;;;;6.00;4.33;;;;;;;0.70;100.00;98305.88;5052046;28;20033;-68
2024/02/03 12:46:37;;;;;;;6.27;4.40;;;;;;;0.64;100.00;98295.25;5049618;28;20032;-67
2024/02/03 12:49:02;;;;;;;10.43;5.20;;;;;;;0.61;100.00;98299.00;5051170;28;20033;-76
2024/02/03 12:51:28;;;;;;;10.97;5.80;;;;;;;0.53;100.00;98284.06;5050187;28;20047;-74
2024/02/03 12:53:57;;;;;;;10.07;6.00;;;;;;;0.32;100.00;98239.19;5051103;28;20049;-72
2024/02/03 12:56:41;;;;;;;9.15;4.70;;;;;;;0.49;100.00;98269.66;5051513;28;20321;-74
2024/02/03 12:59:25;;;;;;;12.50;5.17;;;;;;;0.48;100.00;98268.00;5048821;28;20404;-71
2024/02/03 13:02:09;;;;;;;10.37;6.27;;;;;;;0.56;100.00;98282.91;5051359;28;20282;-71
2024/02/03 13:04:54;;;;;;;8.00;5.40;;;;;;;0.60;100.00;98289.50;5050309;28;20259;-72
2024/02/03 13:10:04;;;;;;;7.27;5.20;;;;;;;0.42;100.00;98252.13;5047939;28;20362;-70
2024/02/03 13:12:57;;;;;;;8.47;5.80;;;;;;;0.58;100.00;98273.13;5048340;28;20654;-74
2024/02/03 13:15:42;;;;;;;5.83;5.23;;;;;;;0.53;100.00;98278.81;5048564;28;20040;-71
2024/02/03 13:18:25;;;;;;;9.13;5.97;;;;;;;0.46;100.00;98254.25;5043644;28;20811;-73
2024/02/03 13:21:10;;;;;;;6.83;6.03;;;;;;;0.22;100.00;98231.44;5046778;28;20370;-71
2024/02/03 13:23:38;;;;;;;10.87;8.10;;;;;;;0.47;100.00;98270.78;5049306;28;20279;-71
2024/02/03 13:26:22;;;;;;;10.07;7.15;;;;;;;0.29;100.00;98242.13;5032740;28;20334;-72
2024/02/03 13:28:48;;;;;;;9.00;6.20;;;;;;;0.43;100.00;98264.22;5051376;28;20052;-69
2024/02/03 13:31:14;;;;;;;10.57;6.70;;;;;;;0.42;100.00;98267.84;5050781;28;20304;-70
2024/02/03 13:33:39;;;;;;;12.33;7.30;;;;;;;0.28;100.00;98225.56;5051730;28;20362;-70
2024/02/03 13:39:09;;;;;;;14.67;6.87;;;;;;;0.54;100.00;98263.94;5051630;28;20048;-70
2024/02/03 13:41:53;;;;;;;8.17;5.87;;;;;;;0.51;100.00;98261.63;5053666;28;20267;-71
2024/02/03 13:44:19;;;;;;;9.33;5.13;;;;;;;0.42;100.00;98241.66;5036423;28;20362;-72
2024/02/03 13:46:44;;;;;;;10.57;6.10;;;;;;;0.50;100.00;98250.34;5057317;28;20304;-69
2024/02/03 13:49:28;;;;;;;10.67;5.60;;;;;;;0.58;100.00;98257.41;5051456;28;20037;-71
2024/02/03 13:51:54;;;;;;;8.40;5.17;;;;;;;0.04;100.00;98174.97;5048328;28;20392;-69